createdAt,value
2022-10-24T00:09:06.121Z,101754.16
2022-10-24T00:13:59.744Z,101769.09
2022-10-24T00:18:52.880Z,101745.75
2022-10-24T00:23:46.362Z,101737.22
2022-10-24T00:28:41.633Z,101698.88
2022-10-24T00:33:35.143Z,101791.94
2022-10-24T00:38:28.569Z,101739.53
2022-10-24T00:43:24.458Z,101806.66
2022-10-24T00:48:26.122Z,101760.78
2022-10-24T00:53:20.837Z,101692.78
2022-10-24T00:58:14.940Z,101790.13
2022-10-24T01:03:08.197Z,101781.88
2022-10-24T01:08:11.598Z,101808.00
2022-10-24T01:13:18.488Z,101801.09
2022-10-24T01:18:18.673Z,101775.53
2022-10-24T01:23:29.617Z,101727.53
2022-10-24T01:28:25.948Z,101738.34
2022-10-24T01:33:28.882Z,101767.31
2022-10-24T01:38:27.806Z,101766.34
2022-10-24T01:43:25.990Z,101751.50
2022-10-24T01:48:24.807Z,101791.28
2022-10-24T01:53:20.015Z,101802.00
2022-10-24T01:58:15.817Z,101755.06
2022-10-24T02:03:24.566Z,101723.66
2022-10-24T02:08:23.478Z,101792.81
2022-10-24T02:13:24.759Z,101786.94
2022-10-24T02:18:18.417Z,101767.84
2022-10-24T02:23:21.516Z,101786.94
2022-10-24T02:28:20.229Z,101712.41
2022-10-24T02:33:14.454Z,101793.44
2022-10-24T02:38:14.038Z,101763.81
2022-10-24T02:43:08.418Z,101734.47
2022-10-24T02:48:07.769Z,101749.16
2022-10-24T02:53:00.972Z,101774.22
2022-10-24T02:57:54.184Z,101798.88
2022-10-24T03:02:47.648Z,101746.75
2022-10-24T03:07:42.421Z,101771.69
2022-10-24T03:12:35.708Z,101806.78
2022-10-24T03:17:28.860Z,101760.97
2022-10-24T03:22:21.967Z,101800.00
2022-10-24T03:27:16.634Z,101755.75
2022-10-24T03:32:09.881Z,101778.22
2022-10-24T03:37:03.007Z,101713.88
2022-10-24T03:41:56.181Z,101780.91
2022-10-24T03:46:50.667Z,101785.66
2022-10-24T03:51:43.901Z,101780.56
2022-10-24T03:56:37.102Z,101790.34
2022-10-24T04:01:30.312Z,101774.13
2022-10-24T04:06:25.020Z,101762.53
2022-10-24T04:11:18.267Z,101813.41
2022-10-24T04:16:11.579Z,101790.38
2022-10-24T04:21:05.062Z,101785.75
2022-10-24T04:25:59.727Z,101761.94
2022-10-24T04:30:56.667Z,101782.31
2022-10-24T04:35:51.246Z,101813.44
2022-10-24T04:40:47.245Z,101759.19
2022-10-24T04:45:41.892Z,101801.47
2022-10-24T04:50:35.091Z,101810.38
2022-10-24T04:55:28.620Z,101821.28
2022-10-24T05:00:21.972Z,101786.41
2022-10-24T05:05:17.265Z,101686.22
2022-10-24T05:10:12.044Z,101798.47
2022-10-24T05:15:06.366Z,101713.88
2022-10-24T05:19:59.588Z,101821.53
2022-10-24T05:24:57.055Z,101735.13
2022-10-24T05:29:50.161Z,101793.72
2022-10-24T05:34:43.337Z,101832.63
2022-10-24T05:39:36.686Z,101827.28
2022-10-24T05:44:33.020Z,101658.81
2022-10-24T05:49:26.338Z,101796.38
2022-10-24T05:54:19.443Z,101807.59
2022-10-24T05:59:12.680Z,101854.25
2022-10-24T06:04:10.010Z,101821.00
2022-10-24T06:09:06.236Z,101796.28
2022-10-24T06:14:00.339Z,101828.56
2022-10-24T06:18:53.537Z,101752.03
2022-10-24T06:23:49.767Z,101847.09
2022-10-24T06:28:43.450Z,101871.63
2022-10-24T06:33:42.694Z,101820.56
2022-10-24T06:38:38.997Z,101881.31
2022-10-24T06:43:42.382Z,101881.41
2022-10-24T06:48:36.239Z,101853.06
2022-10-24T06:53:30.101Z,101857.31
2022-10-24T06:58:23.393Z,101865.03
2022-10-24T07:03:18.297Z,101797.88
2022-10-24T07:08:12.260Z,101815.91
2022-10-24T07:13:05.550Z,101870.63
2022-10-24T07:17:58.721Z,101871.75
2022-10-24T07:22:53.411Z,101876.28
2022-10-24T07:27:46.683Z,101866.41
2022-10-24T07:32:40.103Z,101885.19
2022-10-24T07:37:33.295Z,101843.56
2022-10-24T07:42:27.880Z,101859.31
2022-10-24T07:47:20.970Z,101832.91
2022-10-24T07:52:14.073Z,101836.97
2022-10-24T07:57:07.261Z,101794.00
2022-10-24T08:02:01.802Z,101812.72
2022-10-24T08:06:54.926Z,101805.91
2022-10-24T08:11:48.162Z,101833.09
2022-10-24T08:16:42.724Z,101809.06
2022-10-24T08:21:37.367Z,101847.53
2022-10-24T08:26:30.586Z,101830.16
2022-10-24T08:31:25.753Z,101852.66
2022-10-24T08:36:23.301Z,101857.47
2022-10-24T08:41:26.644Z,101850.25
2022-10-24T08:46:40.440Z,101815.88
2022-10-24T08:51:40.503Z,101824.59
2022-10-24T08:56:35.133Z,101847.97
2022-10-24T09:01:34.361Z,101803.09
2022-10-24T09:06:30.041Z,101808.09
2022-10-24T09:11:31.624Z,101787.81
2022-10-24T09:16:29.197Z,101707.72
2022-10-24T09:21:23.903Z,101816.28
2022-10-24T09:26:19.743Z,101788.34
2022-10-24T09:31:17.821Z,101779.06
2022-10-24T09:36:14.900Z,101784.47
2022-10-24T09:41:16.715Z,101794.81
2022-10-24T09:46:12.415Z,101801.47
2022-10-24T09:51:08.324Z,101675.91
2022-10-24T09:56:09.963Z,101770.16
2022-10-24T10:01:07.121Z,101766.44
2022-10-24T10:06:04.683Z,101774.91
2022-10-24T10:11:01.017Z,101768.69
2022-10-24T10:15:58.087Z,101742.72
2022-10-24T10:21:05.186Z,101762.06
2022-10-24T10:26:20.527Z,101714.78
2022-10-24T10:31:18.353Z,101758.44
2022-10-24T10:36:23.811Z,101727.94
2022-10-24T10:41:27.257Z,101738.59
2022-10-24T10:46:32.683Z,101640.84
2022-10-24T10:51:35.137Z,101715.84
2022-10-24T10:56:36.017Z,101693.53
2022-10-24T11:01:42.087Z,101731.91
2022-10-24T11:06:45.388Z,101705.13
2022-10-24T11:11:43.463Z,101731.56
2022-10-24T11:16:41.233Z,101700.03
2022-10-24T11:21:36.480Z,101676.16
2022-10-24T11:26:33.813Z,101702.75
2022-10-24T11:31:31.807Z,101697.44
2022-10-24T11:36:33.818Z,101661.00
2022-10-24T11:41:49.041Z,101669.28
2022-10-24T11:46:48.239Z,101642.00
2022-10-24T11:51:51.844Z,101683.41
2022-10-24T11:56:49.904Z,101675.63
2022-10-24T12:01:59.905Z,101566.50
2022-10-24T12:07:04.537Z,101675.91
2022-10-24T12:12:31.269Z,101662.81
2022-10-24T12:17:52.090Z,101666.47
2022-10-24T12:22:48.406Z,101661.31
2022-10-24T12:27:43.230Z,101643.09
2022-10-24T12:32:40.922Z,101619.47
2022-10-24T12:37:36.698Z,101635.94
2022-10-24T12:43:03.146Z,101604.19
2022-10-24T12:48:30.182Z,101621.34
2022-10-24T12:54:01.236Z,101543.25
2022-10-24T12:59:00.043Z,101619.53
2022-10-24T13:04:27.060Z,101604.41
2022-10-24T13:09:31.460Z,101609.41
2022-10-24T13:14:36.550Z,101570.25
2022-10-24T13:19:32.558Z,101557.06
2022-10-24T13:24:34.151Z,101599.97
2022-10-24T13:30:03.194Z,101609.22
2022-10-24T13:35:02.950Z,101608.81
2022-10-24T13:39:57.705Z,101601.66
2022-10-24T13:44:54.157Z,101590.28
2022-10-24T13:49:55.747Z,101593.78
2022-10-24T13:54:57.787Z,101532.84
2022-10-24T13:59:56.565Z,101560.44
2022-10-24T14:04:54.832Z,101581.06
2022-10-24T14:09:58.265Z,101545.09
2022-10-24T14:14:53.366Z,101558.84
2022-10-24T14:19:54.352Z,101542.06
2022-10-24T14:24:49.447Z,101530.94
2022-10-24T14:29:53.558Z,101564.53
2022-10-24T14:34:49.680Z,101490.78
2022-10-24T14:39:43.449Z,101564.69
2022-10-24T14:44:38.521Z,101560.72
2022-10-24T14:49:36.838Z,101504.16
2022-10-24T14:54:33.472Z,101524.41
2022-10-24T14:59:30.149Z,101524.53
2022-10-24T15:04:31.932Z,101558.03
2022-10-24T15:09:26.730Z,101466.16
2022-10-24T15:14:40.192Z,101549.78
2022-10-24T15:19:38.930Z,101454.38
2022-10-24T15:24:40.816Z,101442.63
2022-10-24T15:29:37.392Z,101442.63
2022-10-24T15:34:32.924Z,101453.06
2022-10-24T15:39:27.781Z,101469.00
2022-10-24T15:44:25.634Z,101494.69
2022-10-24T15:49:21.542Z,101511.66
2022-10-24T15:54:16.361Z,101522.47
2022-10-24T15:59:09.756Z,101557.50
2022-10-24T16:04:05.870Z,101517.97
2022-10-24T16:08:59.175Z,101553.00
2022-10-24T16:13:52.479Z,101557.00
2022-10-24T16:18:45.926Z,101563.41
2022-10-24T16:23:43.720Z,101533.59
2022-10-24T16:28:36.884Z,101507.09
2022-10-24T16:33:30.122Z,101562.88
2022-10-24T16:38:23.320Z,101482.06
2022-10-24T16:43:21.428Z,101570.81
2022-10-24T16:48:15.205Z,101545.50
2022-10-24T16:53:09.036Z,101578.31
2022-10-24T16:58:02.370Z,101532.31
2022-10-24T17:02:58.298Z,101566.78
2022-10-24T17:07:51.663Z,101583.13
2022-10-24T17:12:47.034Z,101533.94
2022-10-24T17:17:40.328Z,101575.66
2022-10-24T17:22:35.397Z,101584.13
2022-10-24T17:27:28.773Z,101565.69
2022-10-24T17:32:22.121Z,101579.50
2022-10-24T17:37:20.712Z,101573.09
2022-10-24T17:42:15.731Z,101570.44
2022-10-24T17:47:09.438Z,101554.75
2022-10-24T17:52:02.847Z,101555.28
2022-10-24T17:56:56.066Z,101505.59
2022-10-24T18:01:51.390Z,101438.53
2022-10-24T18:06:44.708Z,101542.25
2022-10-24T18:11:38.999Z,101527.09
2022-10-24T18:16:34.367Z,101528.22
2022-10-24T18:21:29.013Z,101519.06
2022-10-24T18:26:24.338Z,101554.63
2022-10-24T18:31:19.705Z,101553.47
2022-10-24T18:36:14.640Z,101526.94
2022-10-24T18:41:30.011Z,101533.00
2022-10-24T18:46:23.586Z,101496.34
2022-10-24T18:51:26.707Z,101538.63
2022-10-24T18:56:21.870Z,101538.88
2022-10-24T19:01:25.829Z,101540.44
2022-10-24T19:06:22.925Z,101536.88
2022-10-24T19:11:26.580Z,101529.59
2022-10-24T19:16:28.596Z,101429.66
2022-10-24T19:21:26.281Z,101528.72
2022-10-24T19:26:19.652Z,101495.34
2022-10-24T19:31:15.095Z,101537.16
2022-10-24T19:36:14.340Z,101428.50
2022-10-24T19:41:11.747Z,101530.69
2022-10-24T19:46:18.750Z,101524.94
2022-10-24T19:51:14.411Z,101497.78
2022-10-24T19:56:09.230Z,101480.56
2022-10-24T20:01:06.645Z,101515.94
2022-10-24T20:06:00.449Z,101485.22
2022-10-24T20:10:57.619Z,101516.41
2022-10-24T20:15:54.989Z,101489.16
2022-10-24T20:20:48.199Z,101409.63
2022-10-24T20:25:41.352Z,101497.19
2022-10-24T20:30:41.948Z,101366.16
2022-10-24T20:35:35.248Z,101497.88
2022-10-24T20:40:29.242Z,101495.56
2022-10-24T20:45:25.195Z,101472.66
2022-10-24T20:50:19.837Z,101431.41
2022-10-24T20:55:25.328Z,101483.91
2022-10-24T21:00:29.062Z,101487.59
2022-10-24T21:05:25.369Z,101464.28
2022-10-24T21:10:19.063Z,101451.84
2022-10-24T21:15:15.501Z,101423.50
2022-10-24T21:20:09.163Z,101409.31
2022-10-24T21:25:03.609Z,101467.88
2022-10-24T21:29:56.736Z,101460.22
2022-10-24T21:34:49.854Z,101479.41
2022-10-24T21:39:45.021Z,101472.56
2022-10-24T21:44:39.477Z,101468.63
2022-10-24T21:49:32.604Z,101428.06
2022-10-24T21:54:26.853Z,101470.84
2022-10-24T21:59:21.600Z,101440.22
2022-10-24T22:04:17.828Z,101407.59
2022-10-24T22:09:16.051Z,101466.16
2022-10-24T22:14:09.370Z,101468.91
2022-10-24T22:19:05.478Z,101463.16
2022-10-24T22:24:01.924Z,101435.84
2022-10-24T22:28:56.884Z,101468.41
2022-10-24T22:33:50.682Z,101418.16
2022-10-24T22:38:44.149Z,101424.84
2022-10-24T22:43:39.261Z,101470.91
2022-10-24T22:48:38.203Z,101466.63
2022-10-24T22:53:33.939Z,101457.78
2022-10-24T22:58:27.651Z,101406.31
2022-10-24T23:03:33.283Z,101455.94
2022-10-24T23:08:33.093Z,101453.88
2022-10-24T23:13:26.936Z,101397.91
2022-10-24T23:18:20.633Z,101429.75
2022-10-24T23:23:28.732Z,101445.38
2022-10-24T23:28:28.683Z,101456.03
2022-10-24T23:33:27.068Z,101405.88
2022-10-24T23:38:22.236Z,101437.69
2022-10-24T23:43:17.689Z,101437.56
2022-10-24T23:48:22.780Z,101433.59
2022-10-24T23:53:33.141Z,101474.75
2022-10-24T23:58:26.496Z,101475.47
